This is the latest recevied weather packets stored in our database for station/object DL2GKM-6. If no packets are shown the sender has not sent any weather packets the latest 1 day(s).
| Time | Temp. | Humidity | Pressure | Rain* | Wind** | Luminosity | Snow |
|---|---|---|---|---|---|---|---|
| 1778059486 | 16.67° C | 58% | 1005.8 hPa | 128.78 mm | - | - | - |
| 1778059186 | 16.11° C | 58% | 1005.8 hPa | 128.78 mm | - | - | - |
| 1778058926 | 16.67° C | 58% | 1005.8 hPa | 128.78 mm | - | - | - |
| 1778058166 | 16.11° C | 62% | 1005.8 hPa | 128.78 mm | - | - | - |
| 1778057926 | 15.56° C | 64% | 1005.8 hPa | 128.78 mm | - | - | - |
| 1778057681 | 15.56° C | 66% | 1005.8 hPa | 128.78 mm | - | - | - |
| 1778057436 | 15.56° C | 67% | 1005.8 hPa | 128.78 mm | - | - | - |
| 1778057176 | 15° C | 69% | 1005.8 hPa | 128.78 mm | - | - | - |
| 1778056631 | 14.44° C | 69% | 1005.8 hPa | 128.78 mm | - | - | - |
| 1778056376 | 14.44° C | 70% | 1005.8 hPa | 128.78 mm | - | - | - |
| 1778056076 | 14.44° C | 69% | 1005.8 hPa | 128.78 mm | - | - | - |
| 1778055826 | 14.44° C | 69% | 1005.9 hPa | 128.78 mm | - | - | - |
| 1778055526 | 14.44° C | 70% | 1005.9 hPa | 128.78 mm | - | - | - |
| 1778055236 | 15° C | 69% | 1005.9 hPa | 128.78 mm | - | - | - |
| 1778054691 | 15° C | 69% | 1005.9 hPa | 128.78 mm | - | - | - |
| 1778054106 | 14.44° C | 71% | 1005.9 hPa | 128.78 mm | - | - | - |
| 1778053261 | 13.89° C | 73% | 1006 hPa | 128.78 mm | - | - | - |
| 1778053016 | 13.89° C | 73% | 1006 hPa | 128.78 mm | - | - | - |
| 1778052716 | 13.89° C | 74% | 1006 hPa | 128.78 mm | - | - | - |
| 1778050271 | 12.22° C | 80% | 1005.9 hPa | 128.78 mm | - | - | - |
| 1778050001 | 11.67° C | 80% | 1005.9 hPa | 128.78 mm | - | - | - |
| 1778049466 | 11.67° C | 81% | 1005.8 hPa | 128.78 mm | - | - | - |
| 1778049166 | 11.67° C | 81% | 1005.9 hPa | 128.78 mm | - | - | - |
| 1778048866 | 11.11° C | 81% | 1005.9 hPa | 128.78 mm | - | - | - |
| 1778048616 | 11.11° C | 81% | 1006 hPa | 128.78 mm | - | - | - |
* Rain latest 24 hours (hover to see other rain measurements)
** Current wind speed in m/s (hover to see current wind gust speed)